createdAt,value
2023-05-11T00:00:41.079Z,12.32
2023-05-11T00:03:08.346Z,12.31
2023-05-11T00:05:35.610Z,12.39
2023-05-11T00:08:02.495Z,12.40
2023-05-11T00:10:29.765Z,12.31
2023-05-11T00:12:57.047Z,12.28
2023-05-11T00:15:24.152Z,12.35
2023-05-11T00:17:51.340Z,12.37
2023-05-11T00:20:18.612Z,12.38
2023-05-11T00:22:45.837Z,12.29
2023-05-11T00:25:12.858Z,12.24
2023-05-11T00:27:41.023Z,12.24
2023-05-11T00:30:10.101Z,12.20
2023-05-11T00:32:36.990Z,12.21
2023-05-11T00:35:04.055Z,12.27
2023-05-11T00:37:34.033Z,12.25
2023-05-11T00:40:06.412Z,12.20
2023-05-11T00:42:34.330Z,12.21
2023-05-11T00:45:03.655Z,12.22
2023-05-11T00:47:32.947Z,12.22
2023-05-11T00:49:59.833Z,12.25
2023-05-11T00:52:27.307Z,12.25
2023-05-11T00:54:54.259Z,12.28
2023-05-11T00:57:21.545Z,12.28
2023-05-11T00:59:49.870Z,12.24
2023-05-11T01:02:17.832Z,12.28
2023-05-11T01:04:45.629Z,12.25
2023-05-11T01:07:41.176Z,12.23
2023-05-11T01:10:55.636Z,12.18
2023-05-11T01:13:37.732Z,12.09
2023-05-11T01:16:24.262Z,12.11
2023-05-11T01:19:15.681Z,12.14
2023-05-11T01:21:42.543Z,12.08
2023-05-11T01:24:50.038Z,12.13
2023-05-11T01:27:40.012Z,12.19
2023-05-11T01:30:32.323Z,12.18
2023-05-11T01:33:07.721Z,12.10
2023-05-11T01:35:42.910Z,12.13
2023-05-11T01:38:14.490Z,12.04
2023-05-11T01:40:44.637Z,11.98
2023-05-11T01:43:22.274Z,11.96
2023-05-11T01:45:54.246Z,11.99
2023-05-11T01:48:29.074Z,12.03
2023-05-11T01:51:03.016Z,12.09
2023-05-11T01:53:34.744Z,12.05
2023-05-11T01:56:04.199Z,12.08
2023-05-11T01:58:35.519Z,12.04
2023-05-11T02:01:04.148Z,11.94
2023-05-11T02:03:37.406Z,11.96
2023-05-11T02:06:09.467Z,12.00
2023-05-11T02:08:41.653Z,12.08
2023-05-11T02:11:12.110Z,12.10
2023-05-11T02:13:42.548Z,12.12
2023-05-11T02:16:12.166Z,12.12
2023-05-11T02:18:41.924Z,12.08
2023-05-11T02:21:11.233Z,12.09
2023-05-11T02:23:44.164Z,12.10
2023-05-11T02:26:14.557Z,12.08
2023-05-11T02:28:41.342Z,12.12
2023-05-11T02:31:19.290Z,12.08
2023-05-11T02:33:52.509Z,12.03
2023-05-11T02:36:25.427Z,11.97
2023-05-11T02:39:02.533Z,11.99
2023-05-11T02:41:31.972Z,12.06
2023-05-11T02:44:04.069Z,12.12
2023-05-11T02:46:36.307Z,12.18
2023-05-11T02:49:07.993Z,12.19
2023-05-11T02:51:43.163Z,12.21
2023-05-11T02:54:14.992Z,12.27
2023-05-11T02:56:42.296Z,12.33
2023-05-11T02:59:10.573Z,12.38
2023-05-11T03:01:39.457Z,12.40
2023-05-11T03:04:07.138Z,12.39
2023-05-11T03:06:34.211Z,12.41
2023-05-11T03:09:02.114Z,12.41
2023-05-11T03:11:30.184Z,12.35
2023-05-11T03:13:58.751Z,12.40
2023-05-11T03:16:27.069Z,12.41
2023-05-11T03:18:55.821Z,12.37
2023-05-11T03:21:26.075Z,12.30
2023-05-11T03:23:54.096Z,12.25
2023-05-11T03:26:23.595Z,12.28
2023-05-11T03:28:53.795Z,12.26
2023-05-11T03:31:20.755Z,12.24
2023-05-11T03:33:47.739Z,12.23
2023-05-11T03:36:15.888Z,12.16
2023-05-11T03:38:46.349Z,12.16
2023-05-11T03:41:17.622Z,12.15
2023-05-11T03:43:50.340Z,12.13
2023-05-11T03:46:21.744Z,12.19
2023-05-11T03:48:49.914Z,12.25
2023-05-11T03:51:17.373Z,12.27
2023-05-11T03:53:47.198Z,12.24
2023-05-11T03:56:14.245Z,12.22
2023-05-11T03:58:41.688Z,12.21
2023-05-11T04:01:11.655Z,12.19
2023-05-11T04:03:53.294Z,12.22
2023-05-11T04:06:20.847Z,12.23
2023-05-11T04:08:48.178Z,12.26
2023-05-11T04:11:14.984Z,12.31
2023-05-11T04:13:41.812Z,12.33
2023-05-11T04:16:08.949Z,12.38
2023-05-11T04:18:35.856Z,12.46
2023-05-11T04:21:02.648Z,12.41
2023-05-11T04:23:29.423Z,12.45
2023-05-11T04:25:56.739Z,12.46
2023-05-11T04:28:27.512Z,12.46
2023-05-11T04:30:56.508Z,12.49
2023-05-11T04:33:24.069Z,12.40
2023-05-11T04:35:52.901Z,12.38
2023-05-11T04:38:21.604Z,12.42
2023-05-11T04:40:50.413Z,12.43
2023-05-11T04:43:18.692Z,12.43
2023-05-11T04:45:50.095Z,12.39
2023-05-11T04:48:20.399Z,12.33
2023-05-11T04:50:47.786Z,12.36
2023-05-11T04:53:14.664Z,12.37
2023-05-11T04:55:41.434Z,12.30
2023-05-11T04:58:08.402Z,12.35
2023-05-11T05:00:36.552Z,12.33
2023-05-11T05:03:03.881Z,12.36
2023-05-11T05:05:30.734Z,12.38
2023-05-11T05:07:57.558Z,12.47
2023-05-11T05:10:24.509Z,12.46
2023-05-11T05:12:51.363Z,12.46
2023-05-11T05:15:18.182Z,12.51
2023-05-11T05:17:45.065Z,12.51
2023-05-11T05:20:12.086Z,12.53
2023-05-11T05:22:38.841Z,12.58
2023-05-11T05:25:08.229Z,12.56
2023-05-11T05:27:35.347Z,12.58
2023-05-11T05:30:06.649Z,12.57
2023-05-11T05:32:33.577Z,12.57
2023-05-11T05:35:00.448Z,12.59
2023-05-11T05:37:27.254Z,12.67
2023-05-11T05:39:57.171Z,12.73
2023-05-11T05:42:26.700Z,12.68
2023-05-11T05:44:53.533Z,12.57
2023-05-11T05:47:20.693Z,12.57
2023-05-11T05:49:48.583Z,12.56
2023-05-11T05:52:15.906Z,12.57
2023-05-11T05:54:43.086Z,12.64
2023-05-11T05:57:09.935Z,12.67
2023-05-11T05:59:36.651Z,12.60
2023-05-11T06:02:03.667Z,12.61
2023-05-11T06:04:30.889Z,12.86
2023-05-11T06:06:58.413Z,12.90
2023-05-11T06:09:25.272Z,12.82
2023-05-11T06:11:54.027Z,12.78
2023-05-11T06:14:24.456Z,12.80
2023-05-11T06:16:51.509Z,12.79
2023-05-11T06:19:18.275Z,12.82
2023-05-11T06:21:45.198Z,12.89
2023-05-11T06:24:12.088Z,12.90
2023-05-11T06:26:39.691Z,12.91
2023-05-11T06:29:07.558Z,12.89
2023-05-11T06:31:34.538Z,12.95
2023-05-11T06:34:01.560Z,12.99
2023-05-11T06:36:28.531Z,13.02
2023-05-11T06:38:55.988Z,13.00
2023-05-11T06:41:22.811Z,13.02
2023-05-11T06:43:49.630Z,13.02
2023-05-11T06:46:19.784Z,13.01
2023-05-11T06:48:46.545Z,12.99
2023-05-11T06:51:13.380Z,12.94
2023-05-11T06:53:42.938Z,12.94
2023-05-11T06:56:09.719Z,12.96
2023-05-11T06:58:36.610Z,12.99
2023-05-11T07:01:05.690Z,12.89
2023-05-11T07:03:32.566Z,12.97
2023-05-11T07:05:59.418Z,13.01
2023-05-11T07:08:34.826Z,13.05
2023-05-11T07:11:01.603Z,13.01
2023-05-11T07:13:28.486Z,13.05
2023-05-11T07:15:57.632Z,13.04
2023-05-11T07:18:24.852Z,13.12
2023-05-11T07:20:52.233Z,13.18
2023-05-11T07:23:22.997Z,13.24
2023-05-11T07:25:49.761Z,13.28
2023-05-11T07:28:17.325Z,13.32
2023-05-11T07:30:44.242Z,13.33
2023-05-11T07:33:11.116Z,13.34
2023-05-11T07:35:38.045Z,13.35
2023-05-11T07:38:07.775Z,13.36
2023-05-11T07:40:35.412Z,13.42
2023-05-11T07:43:02.142Z,13.51
2023-05-11T07:45:28.906Z,13.52
2023-05-11T07:47:56.155Z,13.57
2023-05-11T07:50:24.302Z,13.62
2023-05-11T07:52:52.097Z,13.61
2023-05-11T07:55:20.382Z,13.67
2023-05-11T07:57:47.516Z,13.70
2023-05-11T08:00:15.396Z,13.72
2023-05-11T08:02:42.831Z,13.74
2023-05-11T08:05:10.023Z,13.79
2023-05-11T08:07:37.874Z,13.85
2023-05-11T08:10:07.574Z,13.91
2023-05-11T08:12:36.864Z,13.91
2023-05-11T08:15:05.468Z,13.93
2023-05-11T08:17:33.426Z,13.99
2023-05-11T08:20:00.472Z,14.10
2023-05-11T08:22:27.322Z,14.16
2023-05-11T08:24:54.161Z,14.18
2023-05-11T08:27:21.418Z,14.19
2023-05-11T08:29:48.321Z,14.26
2023-05-11T08:32:15.424Z,14.33
2023-05-11T08:34:42.415Z,14.27
2023-05-11T08:37:09.315Z,14.26
2023-05-11T08:39:46.525Z,14.30
2023-05-11T08:42:17.091Z,14.23
2023-05-11T08:44:44.720Z,14.24
2023-05-11T08:49:42.824Z,14.22
2023-05-11T08:52:10.722Z,14.20
2023-05-11T08:54:37.537Z,14.23
2023-05-11T08:57:07.062Z,14.21
2023-05-11T08:59:34.235Z,14.14
2023-05-11T09:02:03.131Z,14.07
2023-05-11T09:04:32.461Z,14.07
2023-05-11T09:07:00.018Z,14.03
2023-05-11T09:09:27.081Z,14.13
2023-05-11T09:11:54.336Z,14.21
2023-05-11T09:14:26.960Z,14.23
2023-05-11T09:16:54.244Z,14.27
2023-05-11T09:19:21.751Z,14.34
2023-05-11T09:21:48.556Z,14.37
2023-05-11T09:24:15.603Z,14.37
2023-05-11T09:26:42.521Z,14.45
2023-05-11T09:29:12.266Z,14.43
2023-05-11T09:31:48.902Z,14.39
2023-05-11T09:34:22.536Z,14.27
2023-05-11T09:36:53.374Z,14.39
2023-05-11T09:39:39.999Z,14.44
2023-05-11T09:42:14.399Z,14.45
2023-05-11T09:44:44.596Z,14.39
2023-05-11T09:47:16.587Z,14.33
2023-05-11T09:49:45.785Z,14.31
2023-05-11T09:52:15.623Z,14.35
2023-05-11T09:54:44.991Z,14.41
2023-05-11T09:57:29.192Z,14.44
2023-05-11T09:59:59.763Z,14.46
2023-05-11T10:02:31.639Z,14.52
2023-05-11T10:05:01.294Z,14.53
2023-05-11T10:07:32.845Z,14.57
2023-05-11T10:10:06.786Z,14.57
2023-05-11T10:12:38.231Z,14.59
2023-05-11T10:15:10.490Z,14.62
2023-05-11T10:17:37.915Z,14.64
2023-05-11T10:20:06.898Z,14.61
2023-05-11T10:22:34.125Z,14.67
2023-05-11T10:25:03.140Z,14.67
2023-05-11T10:27:32.910Z,14.73
2023-05-11T10:30:00.597Z,14.81
2023-05-11T10:32:29.869Z,14.77
2023-05-11T10:34:57.215Z,14.71
2023-05-11T10:37:24.390Z,14.71
2023-05-11T10:39:52.384Z,14.73
2023-05-11T10:43:00.517Z,14.69
2023-05-11T10:45:40.590Z,14.70
2023-05-11T10:48:29.000Z,14.79
2023-05-11T10:51:47.555Z,14.77
2023-05-11T10:54:38.729Z,14.69
2023-05-11T10:57:47.698Z,14.73
2023-05-11T11:01:02.475Z,14.81
2023-05-11T11:03:30.473Z,14.74
2023-05-11T11:05:59.951Z,14.82
2023-05-11T11:08:28.575Z,14.83
2023-05-11T11:10:56.255Z,14.82
2023-05-11T11:13:24.439Z,14.81
2023-05-11T11:15:54.718Z,14.85
2023-05-11T11:18:26.629Z,14.89
2023-05-11T11:20:56.322Z,14.86
2023-05-11T11:23:50.245Z,14.92
2023-05-11T11:26:50.634Z,15.05
2023-05-11T11:29:17.649Z,15.12
2023-05-11T11:31:44.773Z,15.17
2023-05-11T11:34:29.909Z,15.13
2023-05-11T11:37:00.844Z,15.18
2023-05-11T11:39:44.856Z,15.25
2023-05-11T11:42:35.476Z,15.31
2023-05-11T11:45:32.727Z,15.32
2023-05-11T11:48:15.571Z,15.32
2023-05-11T11:50:45.474Z,15.40
2023-05-11T11:53:38.417Z,15.42
2023-05-11T11:56:15.975Z,15.50
2023-05-11T11:58:46.034Z,15.64
2023-05-11T12:01:22.724Z,15.58
2023-05-11T12:04:04.981Z,15.59
2023-05-11T12:06:39.675Z,15.68
2023-05-11T12:09:08.118Z,15.73
2023-05-11T12:11:35.304Z,15.82
2023-05-11T12:14:02.909Z,15.99
2023-05-11T12:16:30.404Z,15.92
2023-05-11T12:19:02.327Z,16.00
2023-05-11T12:21:32.184Z,16.09
2023-05-11T12:24:07.889Z,16.21
2023-05-11T12:26:35.655Z,16.19
2023-05-11T12:29:14.616Z,16.31
2023-05-11T12:31:48.773Z,16.35
2023-05-11T12:34:22.990Z,16.39
2023-05-11T12:36:53.348Z,16.45
2023-05-11T12:39:22.417Z,16.43
2023-05-11T12:41:52.484Z,16.44
2023-05-11T12:44:23.030Z,16.52
2023-05-11T12:46:50.744Z,16.55
2023-05-11T12:49:25.889Z,16.59
2023-05-11T12:52:02.529Z,16.62
2023-05-11T12:54:38.133Z,16.65
2023-05-11T12:57:08.707Z,16.60
2023-05-11T12:59:39.214Z,16.66
2023-05-11T13:02:16.368Z,16.75
2023-05-11T13:04:45.592Z,16.88
2023-05-11T13:07:23.268Z,16.86
2023-05-11T13:10:01.288Z,16.87
2023-05-11T13:12:34.108Z,16.86
2023-05-11T13:15:12.451Z,16.96
2023-05-11T13:17:42.627Z,17.14
2023-05-11T13:20:20.700Z,17.21
2023-05-11T13:22:49.558Z,17.27
2023-05-11T13:25:20.338Z,17.25
2023-05-11T13:27:48.498Z,17.29
2023-05-11T13:30:15.507Z,17.38
2023-05-11T13:32:42.343Z,17.53
2023-05-11T13:35:09.727Z,17.64
2023-05-11T13:37:36.636Z,17.54
2023-05-11T13:40:04.918Z,17.58
2023-05-11T13:42:32.628Z,17.66
2023-05-11T13:44:59.456Z,17.68
2023-05-11T13:47:26.642Z,17.55
2023-05-11T13:49:56.344Z,17.45
2023-05-11T13:52:23.231Z,17.42
2023-05-11T13:54:49.992Z,17.49
2023-05-11T13:57:17.025Z,17.58
2023-05-11T13:59:44.039Z,17.32
2023-05-11T14:02:11.599Z,17.12
2023-05-11T14:04:39.951Z,17.10
2023-05-11T14:07:07.515Z,17.22
2023-05-11T14:09:34.390Z,17.21
2023-05-11T14:12:01.419Z,17.25
2023-05-11T14:14:28.342Z,17.43
2023-05-11T14:16:55.488Z,17.60
2023-05-11T14:19:22.302Z,17.70
2023-05-11T14:21:49.749Z,17.77
2023-05-11T14:24:16.544Z,17.78
2023-05-11T14:26:43.330Z,17.66
2023-05-11T14:29:10.303Z,17.53
2023-05-11T14:31:40.224Z,17.69
2023-05-11T14:34:07.059Z,17.84
2023-05-11T14:36:39.023Z,17.75
2023-05-11T14:39:05.958Z,17.72
2023-05-11T14:41:34.673Z,17.84
2023-05-11T14:44:01.800Z,17.78
2023-05-11T14:46:28.866Z,17.62
2023-05-11T14:48:55.802Z,17.59
2023-05-11T14:51:22.694Z,17.68
2023-05-11T14:53:57.097Z,17.60
2023-05-11T14:56:23.944Z,17.60
2023-05-11T14:58:50.764Z,17.61
2023-05-11T15:01:18.106Z,17.73
2023-05-11T15:03:45.073Z,17.88
2023-05-11T15:06:21.414Z,17.89
2023-05-11T15:08:52.517Z,17.89
2023-05-11T15:11:19.453Z,17.83
2023-05-11T15:13:47.510Z,17.66
2023-05-11T15:16:14.746Z,17.60
2023-05-11T15:18:43.072Z,17.58
2023-05-11T15:21:10.109Z,17.58
2023-05-11T15:23:37.095Z,17.64
2023-05-11T15:26:04.015Z,17.80
2023-05-11T15:28:30.895Z,17.88
2023-05-11T15:30:57.738Z,17.94
2023-05-11T15:33:24.763Z,17.93
2023-05-11T15:35:51.934Z,17.71
2023-05-11T15:38:18.835Z,17.48
2023-05-11T15:40:46.452Z,17.49
2023-05-11T15:43:14.542Z,17.47
2023-05-11T15:45:41.356Z,17.51
2023-05-11T15:48:09.789Z,17.44
2023-05-11T15:50:37.178Z,17.36
2023-05-11T15:53:04.188Z,17.29
2023-05-11T15:55:31.098Z,17.28
2023-05-11T15:57:58.075Z,17.24
2023-05-11T16:00:24.914Z,17.28
2023-05-11T16:02:53.563Z,17.31
2023-05-11T16:05:20.598Z,17.34
2023-05-11T16:07:50.367Z,17.33
2023-05-11T16:10:17.318Z,17.32
2023-05-11T16:12:45.363Z,17.33
2023-05-11T16:15:12.156Z,17.25
2023-05-11T16:17:39.223Z,17.17
2023-05-11T16:20:06.992Z,17.09
2023-05-11T16:22:35.333Z,17.03
2023-05-11T16:25:02.218Z,16.97
2023-05-11T16:27:29.040Z,16.97
2023-05-11T16:29:55.813Z,16.98
2023-05-11T16:32:22.800Z,16.89
2023-05-11T16:34:49.597Z,16.92
2023-05-11T16:37:16.490Z,16.97
2023-05-11T16:39:43.325Z,16.95
2023-05-11T16:42:10.506Z,16.90
2023-05-11T16:44:37.320Z,16.78
2023-05-11T16:47:04.913Z,16.74
2023-05-11T16:49:31.759Z,16.67
2023-05-11T16:51:58.514Z,16.70
2023-05-11T16:54:26.475Z,16.74
2023-05-11T16:56:54.251Z,16.74
2023-05-11T16:59:21.332Z,16.64
2023-05-11T17:01:49.308Z,16.56
2023-05-11T17:04:16.448Z,16.54
2023-05-11T17:06:43.575Z,16.55
2023-05-11T17:09:10.483Z,16.58
2023-05-11T17:11:37.372Z,16.52
2023-05-11T17:14:04.191Z,16.53
2023-05-11T17:16:31.124Z,16.40
2023-05-11T17:18:59.371Z,16.30
2023-05-11T17:21:26.581Z,16.29
2023-05-11T17:23:56.236Z,16.26
2023-05-11T17:26:27.248Z,16.22
2023-05-11T17:29:12.687Z,16.18
2023-05-11T17:31:40.728Z,16.08
2023-05-11T17:34:08.765Z,16.06
2023-05-11T17:36:36.004Z,16.06
2023-05-11T17:39:05.174Z,16.04
2023-05-11T17:41:32.960Z,16.03
2023-05-11T17:43:59.981Z,16.03
2023-05-11T17:46:28.146Z,15.93
2023-05-11T17:48:58.029Z,15.87
2023-05-11T17:51:25.303Z,15.82
2023-05-11T17:53:53.235Z,15.82
2023-05-11T17:56:20.044Z,15.82
2023-05-11T17:58:47.630Z,15.74
2023-05-11T18:01:14.620Z,15.62
2023-05-11T18:03:42.274Z,15.60
2023-05-11T18:06:09.930Z,15.55
2023-05-11T18:08:36.904Z,15.45
2023-05-11T18:11:04.582Z,15.41
2023-05-11T18:13:31.712Z,15.31
2023-05-11T18:15:59.636Z,15.28
2023-05-11T18:18:28.042Z,15.21
2023-05-11T18:20:55.220Z,15.17
2023-05-11T18:23:21.957Z,15.18
2023-05-11T18:25:49.051Z,15.17
2023-05-11T18:28:15.861Z,15.16
2023-05-11T18:30:42.735Z,15.16
2023-05-11T18:33:09.665Z,15.15
2023-05-11T18:35:39.088Z,15.09
2023-05-11T18:38:07.418Z,15.08
2023-05-11T18:40:35.377Z,15.04
2023-05-11T18:43:02.235Z,15.01
2023-05-11T18:45:30.390Z,15.01
2023-05-11T18:47:57.668Z,15.00
2023-05-11T18:50:25.907Z,14.96
2023-05-11T18:52:53.136Z,14.95
2023-05-11T18:55:20.082Z,14.94
2023-05-11T18:57:48.680Z,14.88
2023-05-11T19:00:16.158Z,14.80
2023-05-11T19:02:43.589Z,14.80
2023-05-11T19:05:10.789Z,14.78
2023-05-11T19:07:38.144Z,14.73
2023-05-11T19:10:06.480Z,14.66
2023-05-11T19:12:33.435Z,14.63
2023-05-11T19:15:00.286Z,14.64
2023-05-11T19:17:27.650Z,14.58
2023-05-11T19:19:56.311Z,14.55
2023-05-11T19:22:24.261Z,14.55
2023-05-11T19:24:51.080Z,14.53
2023-05-11T19:27:18.441Z,14.52
2023-05-11T19:29:45.675Z,14.53
2023-05-11T19:32:12.495Z,14.52
2023-05-11T19:34:42.039Z,14.44
2023-05-11T19:37:09.234Z,14.44
2023-05-11T19:39:40.845Z,14.44
2023-05-11T19:42:08.193Z,14.44
2023-05-11T19:44:43.470Z,14.41
2023-05-11T19:47:10.691Z,14.33
2023-05-11T19:49:37.925Z,14.28
2023-05-11T19:52:05.675Z,14.29
2023-05-11T19:54:32.964Z,14.31
2023-05-11T19:57:00.309Z,14.31
2023-05-11T19:59:34.632Z,14.24
2023-05-11T20:02:03.492Z,14.22
2023-05-11T20:04:33.080Z,14.25
2023-05-11T20:07:00.235Z,14.27
2023-05-11T20:09:27.451Z,14.16
2023-05-11T20:11:54.291Z,14.10
2023-05-11T20:14:21.419Z,14.07
2023-05-11T20:16:48.138Z,14.07
2023-05-11T20:19:15.115Z,14.07
2023-05-11T20:21:42.385Z,14.09
2023-05-11T20:24:09.475Z,14.10
2023-05-11T20:26:39.400Z,14.06
2023-05-11T20:29:07.755Z,14.01
2023-05-11T20:31:34.652Z,13.92
2023-05-11T20:36:31.500Z,13.93
2023-05-11T20:38:59.129Z,13.92
2023-05-11T20:41:28.234Z,13.92
2023-05-11T20:43:55.340Z,13.87
2023-05-11T20:46:22.213Z,13.89
2023-05-11T20:48:51.774Z,13.89
2023-05-11T20:51:23.212Z,13.87
2023-05-11T20:53:50.928Z,13.86
2023-05-11T20:56:17.843Z,13.94
2023-05-11T20:58:47.377Z,13.93
2023-05-11T21:01:14.330Z,13.92
2023-05-11T21:03:41.920Z,13.86
2023-05-11T21:06:08.855Z,13.83
2023-05-11T21:08:36.140Z,13.86
2023-05-11T21:11:03.164Z,13.82
2023-05-11T21:13:30.262Z,13.75
2023-05-11T21:15:57.248Z,13.72
2023-05-11T21:18:33.962Z,13.75
2023-05-11T21:21:04.592Z,13.71
2023-05-11T21:23:31.442Z,13.66
2023-05-11T21:25:59.171Z,13.64
2023-05-11T21:28:27.742Z,13.60
2023-05-11T21:30:55.091Z,13.62
2023-05-11T21:33:21.901Z,13.70
2023-05-11T21:35:51.817Z,13.73
2023-05-11T21:38:25.816Z,13.72
2023-05-11T21:40:56.269Z,13.64
2023-05-11T21:43:23.305Z,13.62
2023-05-11T21:45:53.926Z,13.66
2023-05-11T21:48:21.658Z,13.63
2023-05-11T21:50:54.235Z,13.60
2023-05-11T21:53:22.321Z,13.51
2023-05-11T21:55:50.601Z,13.47
2023-05-11T21:58:17.633Z,13.43
2023-05-11T22:00:44.524Z,13.47
2023-05-11T22:03:14.276Z,13.44
2023-05-11T22:05:41.722Z,13.39
2023-05-11T22:08:14.746Z,13.44
2023-05-11T22:10:43.433Z,13.44
2023-05-11T22:13:18.587Z,13.50
2023-05-11T22:15:45.323Z,13.48
2023-05-11T22:18:12.053Z,13.48
2023-05-11T22:20:38.866Z,13.51
2023-05-11T22:23:05.986Z,13.49
2023-05-11T22:25:32.793Z,13.49
2023-05-11T22:28:00.936Z,13.41
2023-05-11T22:30:27.782Z,13.38
2023-05-11T22:32:54.647Z,13.35
2023-05-11T22:35:22.890Z,13.37
2023-05-11T22:37:49.764Z,13.40
2023-05-11T22:40:16.912Z,13.33
2023-05-11T22:42:43.964Z,13.31
2023-05-11T22:45:11.293Z,13.28
2023-05-11T22:47:39.171Z,13.26
2023-05-11T22:50:11.540Z,13.23
2023-05-11T22:52:38.653Z,13.20
2023-05-11T22:55:06.780Z,13.20
2023-05-11T22:57:33.700Z,13.23
2023-05-11T23:00:00.495Z,13.20
2023-05-11T23:02:29.700Z,13.11
2023-05-11T23:04:56.861Z,13.12
2023-05-11T23:07:24.939Z,13.12
2023-05-11T23:09:52.875Z,13.04
2023-05-11T23:12:19.928Z,12.97
2023-05-11T23:14:47.039Z,12.98
2023-05-11T23:17:14.224Z,12.97
2023-05-11T23:19:41.745Z,12.98
2023-05-11T23:22:11.949Z,12.96
2023-05-11T23:24:38.684Z,12.93
2023-05-11T23:27:05.777Z,12.95
2023-05-11T23:29:32.586Z,12.96
2023-05-11T23:31:59.367Z,12.93
2023-05-11T23:34:26.171Z,12.89
2023-05-11T23:36:53.382Z,12.90
2023-05-11T23:39:20.457Z,12.85
2023-05-11T23:41:47.176Z,12.77
2023-05-11T23:44:13.967Z,12.76
2023-05-11T23:46:41.078Z,12.76
2023-05-11T23:49:07.855Z,12.81
2023-05-11T23:51:34.773Z,12.77
2023-05-11T23:54:02.015Z,12.80
2023-05-11T23:56:28.753Z,12.76
2023-05-11T23:58:55.947Z,12.84
